TE59 weather

Public forecast

Using degrees Fahrenheit for public forecast. Weather courtesy of forecast.io.

Closest aviation weather report (METAR) to Holler Heliport

Report is more than 6 hours old.

Closest report is Randolph Air Force Base, 17.6 nm (32.6 km) SSE. Retrieved 2020/08/14 21:56 UTC (22 hours ago):

KRND 142156Z 18012G18KT 10SM CLR 39/15 A2989 RMK WND/ALSTG ESTMD

Closest aviation forecast (TAF) to Holler Heliport

Forecast is more than 12 hours old.

Closest forecast is Randolph Air Force Base, 17.6 nm (32.6 km) SSE. Retrieved 2020/08/14 16:00 UTC (1 day ago):

TAF KRND 141545Z 1416/1522 18014KT 9999 SCT030 QNH2984INS TEMPO 1423/1506 18015G25KT BECMG 1511/1512 20006KT 9999 BKN010 QNH2989INS BECMG 1513/1514 VRB06KT 9999 SCT010 QNH2991INS TX39/1422Z TN24/1512Z